Flight Track Log - Related Links

Times and Time Zones

All times are in EDT time to prevent confusion due to time zone crossing. See the AAR8738 flight status page for this flight to view local times or setup timezone preferences in your user account.

Time Position Orientation Groundspeed Altitude Reporting Facility
EDT Latitude Longitude Course Direction KTS MPH feet Rate Location/Type
Sun 06:00:00 AM 35.1428 127.5263 346° North  Level Estimated
Sun 06:01:00 AM 35.2185 127.5039 346° North  Level Estimated
Sun 06:02:00 AM 35.2943 127.4815 346° North  Level Estimated
Sun 06:03:00 AM 35.3700 127.4590 346° North  Level Estimated
Sun 06:04:00 AM 35.4457 127.4365 346° North  Level Estimated
Sun 06:05:00 AM 35.5214 127.4140 346° North  Level Estimated
Sun 06:06:00 AM 35.5971 127.3914 346° North  Level Estimated
Sun 06:07:00 AM 35.6729 127.3688 346° North  Level Estimated
Sun 06:08:00 AM 35.7486 127.3461 346° North  Level Estimated
Sun 06:09:00 AM 35.8243 127.3234 346° North  Level Estimated
Sun 06:10:00 AM 35.9000 127.3007 346° North  Level Estimated
Sun 06:11:00 AM 35.9757 127.2779 346° North  Level Estimated
Sun 06:12:00 AM 36.0513 127.2550 346° North  Level Estimated
Sun 06:13:00 AM 36.1270 127.2321 346° North  Level Estimated
Sun 06:14:00 AM 36.2027 127.2092 346° North  Level Estimated
Sun 06:15:00 AM 36.2784 127.1862 346° North  Level Estimated
Sun 06:16:00 AM 36.3540 127.1632 346° North  Level Estimated
Sun 06:17:00 AM 36.4297 127.1402 346° North  Level Estimated
Sun 06:18:00 AM 36.5054 127.1171 346° North  Level Estimated
Sun 06:19:00 AM 36.5810 127.0939 346° North  Level Estimated
Sun 06:20:00 AM 36.6567 127.0707 346° North  Level Estimated
Sun 06:21:00 AM 36.7323 127.0475 346° North  Level Estimated
Sun 06:22:00 AM 36.8080 127.0242 346° North  Level Estimated
Sun 06:22:47 AM 37.0820 127.3020 346° North 339 390 12,200  Level FlightAware ADS-B
Sun 06:23:00 AM 36.8836 127.0008 346° North  Level Estimated
Sun 06:23:31 AM 37.1410 127.3250 17° North 337 388 12,200  Level FlightAware ADS-B
Sun 06:24:07 AM 37.1920 127.2870 329° Northwest 316 364 12,200  Level FlightAware ADS-B
Sun 06:24:53 AM 37.2360 127.2230 311° West 316 364 12,200  Level FlightAware ADS-B
Sun 06:25:33 AM 37.2760 127.1660 311° West 316 364 12,200  Level FlightAware ADS-B
Sun 06:26:19 AM 37.3180 127.1030 310° West 309 356 12,200 -353 Level FlightAware ADS-B
Sun 06:26:58 AM 37.3510 127.0430 305° West 311 358 11,700 -929 Descending FlightAware ADS-B
Sun 06:27:43 AM 37.3870 126.9780 305° West 313 360 10,900 -988 Descending FlightAware ADS-B
Sun 06:28:23 AM 37.4170 126.9180 302° West 285 328 10,300 -930 Descending FlightAware ADS-B
Sun 06:28:54 AM 37.4320 126.8710 292° West 271 312 9,800 -1,100 Descending FlightAware ADS-B
Sun 06:29:23 AM 37.4460 126.8290 293° West 272 313 9,200 -982 Descending FlightAware ADS-B
Sun 06:29:49 AM 37.4570 126.7930 291° West 274 315 8,900 -900 Descending FlightAware ADS-B
Sun 06:30:23 AM 37.4720 126.7460 292° West 269 310 8,300 -923 Descending FlightAware ADS-B
Sun 06:30:54 AM 37.4870 126.7040 294° West 229 264 7,900 -1,071 Descending FlightAware ADS-B
Sun 06:31:19 AM 37.5060 126.6770 312° West 230 265 7,300 -1,714 Descending FlightAware ADS-B
Sun 06:31:43 AM 37.5240 126.6540 315° West 234 269 6,500 -2,000 Descending FlightAware ADS-B
Sun 06:34:00 AM 37.5583 126.7906 72° East  Level Estimated
Sun 06:35:00 AM 37.5583 126.7906 288° West  Level Estimated
Sun 06:36:00 AM 37.5583 126.7906 288° West  Level Estimated
Sun 06:37:00 AM 37.5583 126.7906 288° West  Level Estimated
Sun 06:38:00 AM 37.5583 126.7906 288° West  Level Estimated
Sun 06:39:00 AM 37.5583 126.7906 288° West  Level Estimated
Sun 06:40:00 AM 37.5583 126.7906 288° West  Level Estimated
Sun 06:41:00 AM 37.5583 126.7906 288° West  Level Estimated
Sun 06:42:00 AM 37.5583 126.7906 288° West  Level Estimated
Sun 06:43:00 AM 37.5583 126.7906 288° West  Level Estimated
Sun 06:44:00 AM 37.5583 126.7906 288° West  Level Estimated
Sun 06:45:00 AM 37.5583 126.7906 288° West  Level Estimated
Sun 06:46:00 AM 37.5583 126.7906 288° West  Level Estimated
Sun 06:47:00 AM 37.5583 126.7906 288° West  Level Estimated

Login

Don't have an account? Register now (free) for customized features, flight alerts, and more!